Time;durP1;ratioP1;P1;durP2;ratioP2;P2;SDS_P1;SDS_P2;PMS_P1;PMS_P2;Temp;Humidity;BMP_temperature;BMP_pressure;BME280_temperature;BME280_humidity;BME280_pressure;Samples;Min_cycle;Max_cycle;Signal;HPM_P1;HPM_P2
2024/03/25 00:00:20;;;;;;;27.92;7.10;;;7.70;99.90;;;;;;5023437;28;20025;-70
2024/03/25 00:02:46;;;;;;;24.35;7.30;;;7.60;99.90;;;;;;5025187;28;20022;-69
2024/03/25 00:05:14;;;;;;;23.45;6.72;;;7.60;99.90;;;;;;5023998;28;20080;-69
2024/03/25 00:07:40;;;;;;;31.30;7.60;;;7.60;99.90;;;;;;5023698;28;20033;-69
2024/03/25 00:10:08;;;;;;;19.15;6.43;;;7.60;99.90;;;;;;5023657;28;20030;-70
2024/03/25 00:12:37;;;;;;;21.15;6.63;;;7.60;99.90;;;;;;5024457;28;20037;-69
2024/03/25 00:15:03;;;;;;;31.45;7.13;;;7.60;99.90;;;;;;5024397;28;20045;-69
2024/03/25 00:17:28;;;;;;;26.05;7.30;;;7.60;99.90;;;;;;5027129;28;20514;-70
2024/03/25 00:19:54;;;;;;;18.25;6.72;;;7.50;99.90;;;;;;5027187;28;20087;-70
2024/03/25 00:22:21;;;;;;;29.52;7.82;;;7.60;99.90;;;;;;5027530;28;20021;-69
2024/03/25 00:24:47;;;;;;;25.70;7.05;;;7.50;99.90;;;;;;5027845;28;20025;-69
2024/03/25 00:27:14;;;;;;;23.38;6.78;;;7.50;99.90;;;;;;5027173;28;20021;-69
2024/03/25 00:29:40;;;;;;;20.00;6.18;;;7.50;99.90;;;;;;5028182;28;20025;-69
2024/03/25 00:32:06;;;;;;;23.83;6.72;;;7.50;99.90;;;;;;5028089;28;20475;-69
2024/03/25 00:34:32;;;;;;;28.85;7.18;;;7.50;99.90;;;;;;5028033;28;20021;-69
2024/03/25 00:36:59;;;;;;;24.52;7.47;;;7.50;99.90;;;;;;5026972;28;20044;-70
2024/03/25 00:39:25;;;;;;;21.40;7.68;;;7.40;99.90;;;;;;5027543;28;20378;-69
2024/03/25 00:41:52;;;;;;;28.20;7.65;;;7.40;99.90;;;;;;5027271;28;20029;-70
2024/03/25 00:44:17;;;;;;;21.33;7.45;;;7.40;99.90;;;;;;5026733;28;20031;-69
2024/03/25 00:46:43;;;;;;;22.17;6.45;;;7.40;99.90;;;;;;5025143;28;20034;-69
2024/03/25 00:49:10;;;;;;;25.73;6.85;;;7.40;99.90;;;;;;5027425;28;20029;-69
2024/03/25 00:51:36;;;;;;;19.55;6.28;;;7.40;99.90;;;;;;5026833;28;20526;-69
2024/03/25 00:54:03;;;;;;;22.60;6.40;;;7.30;99.90;;;;;;5025343;28;20021;-69
2024/03/25 00:56:29;;;;;;;31.20;7.35;;;7.30;99.90;;;;;;5027805;28;20046;-70
2024/03/25 00:58:57;;;;;;;18.55;6.80;;;7.30;99.90;;;;;;5024559;28;20045;-69
2024/03/25 01:01:23;;;;;;;19.58;7.40;;;7.20;99.90;;;;;;5024867;28;20030;-69
2024/03/25 01:03:48;;;;;;;29.85;7.70;;;7.10;99.90;;;;;;5027397;28;20087;-69
2024/03/25 01:06:14;;;;;;;20.98;6.55;;;7.10;99.90;;;;;;5027057;28;20463;-69
2024/03/25 01:08:40;;;;;;;22.58;7.25;;;7.20;99.90;;;;;;5026663;28;20013;-69
2024/03/25 01:11:06;;;;;;;22.42;7.30;;;7.20;99.90;;;;;;5027324;28;20025;-69
2024/03/25 01:13:31;;;;;;;28.77;6.57;;;7.20;99.90;;;;;;5026774;28;20028;-69
2024/03/25 01:15:57;;;;;;;21.30;6.68;;;7.10;99.90;;;;;;5027216;28;20029;-69
2024/03/25 01:18:23;;;;;;;27.42;6.93;;;7.10;99.90;;;;;;5026819;28;20048;-70
2024/03/25 01:20:49;;;;;;;20.13;7.55;;;6.90;99.90;;;;;;5026276;28;20474;-69
2024/03/25 01:23:15;;;;;;;31.75;7.00;;;7.00;99.90;;;;;;5026333;28;20026;-70
2024/03/25 01:25:41;;;;;;;24.73;7.53;;;6.90;99.90;;;;;;5026875;28;20025;-69
2024/03/25 01:28:07;;;;;;;22.15;7.00;;;6.90;99.90;;;;;;5025942;28;20044;-69
2024/03/25 01:30:35;;;;;;;24.75;7.25;;;6.90;99.90;;;;;;5026528;28;20033;-69
2024/03/25 01:33:01;;;;;;;17.40;6.80;;;6.90;99.90;;;;;;5026140;28;20028;-69
2024/03/25 01:35:27;;;;;;;24.77;7.28;;;6.90;99.90;;;;;;5026168;28;20033;-69
2024/03/25 01:37:53;;;;;;;29.67;7.25;;;6.90;99.90;;;;;;5026091;28;20506;-70
2024/03/25 01:40:18;;;;;;;32.47;7.50;;;6.90;99.90;;;;;;5025373;28;20032;-70
2024/03/25 01:42:58;;;;;;;31.30;7.97;;;6.90;99.90;;;;;;5026369;28;20368;-70
2024/03/25 01:45:30;;;;;;;25.60;8.20;;;7.00;99.90;;;;;;5024471;28;20037;-70
2024/03/25 01:47:57;;;;;;;24.83;7.20;;;7.00;99.90;;;;;;5024605;28;20042;-70
2024/03/25 01:50:24;;;;;;;29.33;7.30;;;7.00;99.90;;;;;;5026204;28;20391;-70
2024/03/25 01:52:50;;;;;;;29.08;8.15;;;7.00;99.90;;;;;;5025867;28;20144;-69
2024/03/25 01:55:20;;;;;;;30.02;8.95;;;7.00;99.90;;;;;;5025835;28;20064;-70
2024/03/25 01:57:47;;;;;;;23.67;7.25;;;7.00;99.90;;;;;;5025296;28;20398;-69
2024/03/25 02:00:16;;;;;;;33.67;8.05;;;7.00;99.90;;;;;;5025771;28;20569;-71
2024/03/25 02:02:43;;;;;;;26.00;8.18;;;7.00;99.90;;;;;;5026722;28;20025;-70
2024/03/25 02:05:11;;;;;;;22.33;7.85;;;7.00;99.90;;;;;;5025000;28;20018;-69
2024/03/25 02:07:37;;;;;;;34.10;9.52;;;6.90;99.90;;;;;;5025142;28;20968;-69
2024/03/25 02:10:04;;;;;;;32.88;8.20;;;6.90;99.90;;;;;;5025618;28;20471;-69
2024/03/25 02:12:31;;;;;;;27.92;8.27;;;6.80;99.90;;;;;;5025509;28;20025;-69
2024/03/25 02:14:58;;;;;;;37.67;8.98;;;6.80;99.90;;;;;;5026307;28;20029;-70
2024/03/25 02:17:24;;;;;;;26.63;8.45;;;6.80;99.90;;;;;;5024721;28;20172;-70
2024/03/25 02:19:50;;;;;;;26.65;8.50;;;6.80;99.90;;;;;;5026769;28;20028;-69
2024/03/25 02:22:16;;;;;;;18.80;7.45;;;6.80;99.90;;;;;;5024513;28;20021;-69
2024/03/25 02:24:46;;;;;;;24.02;9.20;;;6.80;99.90;;;;;;5026008;28;20482;-70
2024/03/25 02:27:15;;;;;;;29.95;9.27;;;6.70;99.90;;;;;;5024537;28;20018;-69
2024/03/25 02:29:41;;;;;;;25.30;8.70;;;6.70;99.90;;;;;;5025881;28;20013;-69
2024/03/25 02:32:11;;;;;;;36.85;8.90;;;6.70;99.90;;;;;;5023380;28;20376;-70
2024/03/25 02:34:42;;;;;;;25.23;8.82;;;6.70;99.90;;;;;;5022804;28;20017;-70
2024/03/25 02:37:09;;;;;;;29.25;10.38;;;6.70;99.90;;;;;;5024483;28;20063;-69
2024/03/25 02:39:35;;;;;;;27.88;8.65;;;6.70;99.90;;;;;;5025205;28;20490;-69
2024/03/25 02:42:01;;;;;;;32.78;8.90;;;6.70;99.90;;;;;;5024625;28;20017;-69
2024/03/25 02:44:27;;;;;;;31.75;9.30;;;6.60;99.90;;;;;;5024368;28;20486;-69
2024/03/25 02:46:53;;;;;;;21.35;7.55;;;6.60;99.90;;;;;;5024674;28;20026;-69
2024/03/25 02:49:19;;;;;;;20.70;7.80;;;6.60;99.90;;;;;;5024722;28;20038;-69
2024/03/25 02:51:44;;;;;;;17.20;7.43;;;6.50;99.90;;;;;;5024779;28;20372;-69
2024/03/25 02:54:10;;;;;;;18.52;7.22;;;6.50;99.90;;;;;;5024635;28;20052;-69
2024/03/25 02:56:37;;;;;;;21.58;7.65;;;6.50;99.90;;;;;;5025271;28;20556;-69
2024/03/25 02:59:02;;;;;;;26.67;8.43;;;6.50;99.90;;;;;;5025180;28;20465;-69
2024/03/25 03:01:28;;;;;;;22.55;8.48;;;6.50;99.90;;;;;;5024004;28;20036;-72
2024/03/25 03:03:54;;;;;;;19.73;7.70;;;6.50;99.90;;;;;;5025244;28;20030;-70
2024/03/25 03:06:19;;;;;;;25.02;8.75;;;6.40;99.90;;;;;;5024975;28;20027;-71
2024/03/25 03:08:45;;;;;;;24.15;8.90;;;6.50;99.90;;;;;;5024451;28;20421;-69
2024/03/25 03:11:11;;;;;;;23.52;8.88;;;6.40;99.90;;;;;;5024007;28;20642;-70
2024/03/25 03:13:37;;;;;;;26.40;8.27;;;6.40;99.90;;;;;;5025390;28;20470;-70
2024/03/25 03:16:02;;;;;;;23.88;8.63;;;6.40;99.90;;;;;;5023247;28;20091;-69
2024/03/25 03:18:28;;;;;;;19.80;9.57;;;6.40;99.90;;;;;;5025109;28;20693;-70
2024/03/25 03:20:56;;;;;;;25.60;10.55;;;6.30;99.90;;;;;;5024291;28;20480;-69
2024/03/25 03:23:23;;;;;;;31.02;9.82;;;6.30;99.90;;;;;;5025125;28;20033;-69
2024/03/25 03:25:49;;;;;;;21.77;9.98;;;6.30;99.90;;;;;;5024781;28;20026;-69
2024/03/25 03:28:15;;;;;;;26.27;9.18;;;6.20;99.90;;;;;;5024356;28;20029;-70
2024/03/25 03:30:41;;;;;;;26.00;10.73;;;6.30;99.90;;;;;;5024230;28;20075;-69
2024/03/25 03:33:07;;;;;;;31.08;9.77;;;6.30;99.90;;;;;;5024268;28;20022;-69
2024/03/25 03:35:34;;;;;;;27.30;9.25;;;6.30;99.90;;;;;;5023472;28;20018;-69
2024/03/25 03:37:59;;;;;;;27.15;10.27;;;6.30;99.90;;;;;;5023535;28;20038;-70
2024/03/25 03:40:25;;;;;;;24.73;9.60;;;6.20;99.90;;;;;;5024287;28;20080;-70
2024/03/25 03:42:51;;;;;;;33.22;9.82;;;6.20;99.90;;;;;;5024832;28;20470;-69
2024/03/25 03:45:16;;;;;;;25.77;9.38;;;6.20;99.90;;;;;;5022520;28;20045;-69
2024/03/25 03:47:42;;;;;;;28.85;10.02;;;6.20;99.90;;;;;;5024920;28;20039;-70
2024/03/25 03:50:09;;;;;;;29.15;10.30;;;6.20;99.90;;;;;;5024438;28;20034;-70
2024/03/25 03:52:35;;;;;;;32.05;11.40;;;6.10;99.90;;;;;;5026578;28;20055;-69
2024/03/25 03:55:00;;;;;;;28.35;10.57;;;6.10;99.90;;;;;;5028776;28;20437;-69
2024/03/25 03:57:26;;;;;;;26.13;10.25;;;6.10;99.90;;;;;;5027971;28;20037;-70
2024/03/25 03:59:52;;;;;;;27.83;11.27;;;6.10;99.90;;;;;;5027583;28;20029;-70
2024/03/25 04:02:18;;;;;;;38.03;12.98;;;6.10;99.90;;;;;;5027698;28;20033;-69
2024/03/25 04:04:44;;;;;;;35.20;12.50;;;6.10;99.90;;;;;;5028459;28;20564;-69
2024/03/25 04:07:10;;;;;;;28.70;11.77;;;6.00;99.90;;;;;;5029480;28;20043;-69
2024/03/25 04:09:35;;;;;;;39.25;12.23;;;6.10;99.90;;;;;;5029313;28;20386;-69
2024/03/25 04:12:01;;;;;;;30.98;10.50;;;6.10;99.90;;;;;;5028682;28;20443;-70
2024/03/25 04:14:27;;;;;;;19.20;8.02;;;6.10;99.90;;;;;;5029109;28;20104;-69
2024/03/25 04:16:53;;;;;;;17.98;7.72;;;6.00;99.90;;;;;;5029121;28;20398;-69
2024/03/25 04:19:24;;;;;;;19.95;7.70;;;6.00;99.90;;;;;;5027982;28;20036;-69
2024/03/25 04:21:49;;;;;;;18.00;7.88;;;5.90;99.90;;;;;;5028408;28;20038;-70
2024/03/25 04:24:15;;;;;;;17.67;8.45;;;5.90;99.90;;;;;;5028599;28;20505;-70
2024/03/25 04:26:41;;;;;;;16.45;8.13;;;5.80;99.90;;;;;;5027912;28;20025;-70
2024/03/25 04:29:06;;;;;;;21.25;8.98;;;5.80;99.90;;;;;;5025827;28;20386;-71
2024/03/25 04:31:32;;;;;;;20.70;8.50;;;5.80;99.90;;;;;;5028329;28;21695;-70
2024/03/25 04:33:58;;;;;;;25.42;9.35;;;5.80;99.90;;;;;;5029274;28;20026;-71
2024/03/25 04:36:23;;;;;;;27.60;9.70;;;5.80;99.90;;;;;;5027406;28;20664;-70
2024/03/25 04:38:49;;;;;;;29.45;9.45;;;5.80;99.90;;;;;;5028817;28;20044;-70
2024/03/25 04:41:15;;;;;;;31.67;9.50;;;5.80;99.90;;;;;;5027716;28;20411;-70
2024/03/25 04:43:41;;;;;;;21.95;8.68;;;5.80;99.90;;;;;;5027728;28;20056;-70
2024/03/25 04:46:06;;;;;;;21.95;9.13;;;5.70;99.90;;;;;;5028495;28;20034;-70
2024/03/25 04:48:32;;;;;;;22.60;9.10;;;5.70;99.90;;;;;;5029020;28;20102;-70
2024/03/25 04:50:58;;;;;;;23.75;9.15;;;5.60;99.90;;;;;;5027863;28;20060;-70
2024/03/25 04:53:24;;;;;;;22.65;10.20;;;5.60;99.90;;;;;;5028645;28;20071;-70
2024/03/25 04:55:49;;;;;;;25.92;10.02;;;5.70;99.90;;;;;;5028553;28;20485;-70
2024/03/25 04:58:15;;;;;;;27.25;9.52;;;5.60;99.90;;;;;;5027342;28;20375;-70
2024/03/25 05:00:41;;;;;;;28.10;9.52;;;5.60;99.90;;;;;;5023311;28;20506;-71
2024/03/25 05:03:06;;;;;;;29.55;10.93;;;5.50;99.90;;;;;;5025416;28;20036;-70
2024/03/25 05:05:32;;;;;;;31.52;12.88;;;5.50;99.90;;;;;;5026571;28;20536;-71
2024/03/25 05:07:57;;;;;;;30.55;12.68;;;5.50;99.90;;;;;;5026478;28;20017;-71
2024/03/25 05:10:23;;;;;;;34.30;12.68;;;5.40;99.90;;;;;;5026828;28;20676;-71
2024/03/25 05:12:49;;;;;;;25.90;11.13;;;5.30;99.90;;;;;;5027273;28;20493;-71
2024/03/25 05:15:15;;;;;;;37.72;11.90;;;5.40;99.90;;;;;;5026235;28;20021;-70
2024/03/25 05:17:41;;;;;;;20.40;10.15;;;5.30;99.90;;;;;;5028590;28;20116;-70
2024/03/25 05:20:07;;;;;;;22.90;10.02;;;5.40;99.90;;;;;;5026773;28;20086;-71
2024/03/25 05:22:33;;;;;;;21.63;9.45;;;5.40;99.90;;;;;;5027708;28;20107;-70
2024/03/25 05:24:58;;;;;;;18.58;8.70;;;5.30;99.90;;;;;;5028385;28;20474;-70
2024/03/25 05:27:24;;;;;;;18.90;9.07;;;5.20;99.90;;;;;;5025594;28;20402;-70
2024/03/25 05:29:50;;;;;;;19.88;8.35;;;5.30;99.90;;;;;;5026890;28;20034;-70
2024/03/25 05:32:21;;;;;;;24.13;9.63;;;5.30;99.90;;;;;;5027498;28;20371;-70
2024/03/25 05:34:48;;;;;;;22.95;10.55;;;5.30;99.90;;;;;;5026592;28;20018;-70
2024/03/25 05:37:14;;;;;;;27.52;11.60;;;5.30;99.90;;;;;;5027271;28;20034;-70
2024/03/25 05:39:39;;;;;;;23.65;11.13;;;5.30;99.90;;;;;;5026911;28;20501;-71
2024/03/25 05:42:05;;;;;;;21.88;11.70;;;5.30;99.90;;;;;;5024830;28;20029;-70
2024/03/25 05:44:31;;;;;;;26.63;11.05;;;5.30;99.90;;;;;;5027867;28;20462;-70
2024/03/25 05:46:57;;;;;;;22.10;10.55;;;5.30;99.90;;;;;;5027840;28;20083;-70
2024/03/25 05:49:23;;;;;;;21.63;9.20;;;5.30;99.90;;;;;;5027818;28;20026;-70
2024/03/25 05:51:49;;;;;;;22.38;9.20;;;5.30;99.90;;;;;;5024338;28;20479;-71
2024/03/25 05:54:14;;;;;;;27.00;9.55;;;5.30;99.90;;;;;;5023836;28;20208;-70
2024/03/25 05:56:40;;;;;;;25.75;9.25;;;5.20;99.90;;;;;;5023068;28;20033;-70
2024/03/25 05:59:06;;;;;;;20.02;9.63;;;5.20;99.90;;;;;;5024543;28;20029;-72
2024/03/25 06:01:31;;;;;;;21.67;9.75;;;5.20;99.90;;;;;;5023918;28;20022;-70
2024/03/25 06:03:57;;;;;;;17.10;9.15;;;5.20;99.90;;;;;;5026319;28;20052;-70
2024/03/25 06:06:23;;;;;;;16.17;8.30;;;5.30;99.90;;;;;;5026135;28;20108;-69
2024/03/25 06:08:50;;;;;;;18.52;8.73;;;5.30;99.90;;;;;;5025332;28;20029;-70
2024/03/25 06:11:17;;;;;;;19.40;9.63;;;5.20;99.90;;;;;;5025794;28;20024;-71
2024/03/25 06:13:47;;;;;;;28.67;9.52;;;5.20;99.90;;;;;;5025889;28;20040;-71
2024/03/25 06:16:13;;;;;;;17.63;8.82;;;5.30;99.90;;;;;;5025172;28;20032;-73
2024/03/25 06:18:40;;;;;;;17.48;8.25;;;5.30;99.90;;;;;;5024519;28;20037;-70
2024/03/25 06:21:06;;;;;;;27.40;12.55;;;5.30;99.90;;;;;;5025517;28;20021;-71
2024/03/25 06:23:32;;;;;;;26.40;13.80;;;5.30;99.90;;;;;;5023948;28;20049;-70
2024/03/25 06:25:58;;;;;;;27.05;13.15;;;5.30;99.90;;;;;;5025534;28;20144;-70
2024/03/25 06:28:24;;;;;;;26.08;13.25;;;5.40;99.90;;;;;;5025890;28;20025;-70
2024/03/25 06:36:20;;;;;;;17.67;7.82;;;5.50;99.90;;;;;;5025581;28;20092;-70
2024/03/25 06:38:46;;;;;;;16.40;7.80;;;5.50;99.90;;;;;;5025568;28;20037;-70
2024/03/25 06:41:12;;;;;;;17.38;7.82;;;5.60;99.90;;;;;;5025456;28;20573;-71
2024/03/25 06:43:38;;;;;;;14.75;9.25;;;5.60;99.90;;;;;;5025775;28;20026;-71
2024/03/25 06:46:05;;;;;;;12.55;8.07;;;5.60;99.90;;;;;;5025237;28;20037;-71
2024/03/25 06:48:31;;;;;;;17.27;9.40;;;5.60;99.90;;;;;;5025864;28;20049;-71
2024/03/25 06:50:59;;;;;;;14.57;8.48;;;5.60;99.90;;;;;;5025180;28;20034;-70
2024/03/25 06:53:25;;;;;;;16.67;8.43;;;5.70;99.90;;;;;;5025259;28;20021;-70
2024/03/25 06:55:56;;;;;;;19.20;9.00;;;5.70;99.90;;;;;;5024595;28;20025;-69
2024/03/25 06:58:23;;;;;;;19.10;9.80;;;5.80;99.90;;;;;;5025673;28;20041;-69
2024/03/25 07:00:49;;;;;;;17.30;9.27;;;5.80;99.90;;;;;;5024487;28;20010;-70
2024/03/25 07:03:18;;;;;;;18.45;10.13;;;5.90;99.90;;;;;;5025661;28;20030;-71
2024/03/25 07:05:45;;;;;;;22.58;11.70;;;6.00;99.90;;;;;;5023250;28;20022;-71
2024/03/25 07:08:11;;;;;;;25.20;12.82;;;6.00;99.90;;;;;;5023900;28;20535;-70
2024/03/25 07:10:37;;;;;;;32.03;18.38;;;6.10;99.90;;;;;;5023389;28;20498;-70
2024/03/25 07:13:03;;;;;;;50.30;23.05;;;6.20;99.90;;;;;;5024967;28;20060;-70
2024/03/25 07:15:29;;;;;;;52.75;25.75;;;6.20;99.90;;;;;;5023755;28;20029;-70
2024/03/25 07:17:54;;;;;;;39.33;20.13;;;6.30;99.90;;;;;;5024609;28;20552;-70
2024/03/25 07:20:22;;;;;;;44.30;22.60;;;6.30;99.90;;;;;;5024199;28;20025;-71
2024/03/25 07:22:48;;;;;;;39.08;17.73;;;6.40;99.90;;;;;;5024937;28;20044;-71
2024/03/25 07:25:14;;;;;;;42.80;18.00;;;6.40;99.90;;;;;;5025098;28;20026;-71
2024/03/25 07:27:40;;;;;;;36.70;17.55;;;6.50;99.90;;;;;;5025752;28;20068;-71
2024/03/25 07:30:07;;;;;;;46.58;19.90;;;6.50;99.90;;;;;;5028717;28;20700;-70
2024/03/25 07:32:35;;;;;;;55.05;20.27;;;6.70;99.90;;;;;;5028681;28;20057;-72
2024/03/25 07:35:01;;;;;;;43.90;19.38;;;6.70;99.90;;;;;;5029335;28;20065;-70
2024/03/25 07:37:27;;;;;;;48.38;19.38;;;6.80;99.90;;;;;;5028178;28;20053;-70
2024/03/25 07:39:53;;;;;;;52.92;21.95;;;6.80;99.90;;;;;;5025524;28;20589;-70
2024/03/25 07:42:19;;;;;;;52.47;21.85;;;6.90;99.90;;;;;;5027965;28;20032;-71
2024/03/25 07:44:44;;;;;;;52.05;21.27;;;7.00;99.90;;;;;;5027850;28;20025;-70
2024/03/25 07:47:10;;;;;;;53.65;21.50;;;7.10;99.90;;;;;;5027526;28;20037;-70
2024/03/25 07:49:36;;;;;;;51.95;20.70;;;7.20;99.90;;;;;;5029136;28;20053;-71
2024/03/25 07:52:02;;;;;;;53.08;20.42;;;7.30;99.90;;;;;;5028586;28;20481;-70
2024/03/25 07:54:28;;;;;;;47.90;21.55;;;7.40;99.90;;;;;;5029139;28;20041;-70
2024/03/25 07:56:53;;;;;;;42.85;20.23;;;7.50;99.90;;;;;;5028997;28;20038;-69
2024/03/25 07:59:19;;;;;;;43.45;19.35;;;7.60;99.90;;;;;;5029208;28;20029;-70
2024/03/25 08:01:45;;;;;;;45.05;18.60;;;7.50;99.90;;;;;;5028678;28;20075;-69
2024/03/25 08:04:11;;;;;;;44.80;18.85;;;7.50;99.90;;;;;;5028740;28;20513;-68
2024/03/25 08:06:36;;;;;;;47.30;19.48;;;7.60;99.90;;;;;;5028675;28;20029;-69
2024/03/25 08:09:05;;;;;;;45.85;20.17;;;7.60;99.90;;;;;;5027665;28;20029;-69
2024/03/25 08:11:34;;;;;;;42.50;18.48;;;7.80;99.90;;;;;;5026638;28;20075;-69
2024/03/25 08:13:59;;;;;;;43.47;18.55;;;7.90;99.90;;;;;;5027411;28;20029;-69
2024/03/25 08:16:25;;;;;;;40.00;17.67;;;8.00;99.90;;;;;;5028265;28;20030;-68
2024/03/25 08:18:51;;;;;;;40.00;16.27;;;8.10;99.90;;;;;;5026407;28;20390;-69
2024/03/25 08:21:17;;;;;;;42.50;18.15;;;8.20;99.90;;;;;;5028435;28;20029;-68
2024/03/25 08:23:46;;;;;;;41.08;16.92;;;8.30;99.90;;;;;;5028819;28;20532;-68
2024/03/25 08:26:12;;;;;;;43.95;17.80;;;8.30;99.90;;;;;;5046701;28;20033;-68
2024/03/25 08:28:37;;;;;;;44.08;16.45;;;8.40;99.90;;;;;;5028172;28;20051;-68
2024/03/25 08:31:04;;;;;;;37.60;17.65;;;8.50;99.90;;;;;;5027861;28;20022;-69
2024/03/25 08:33:29;;;;;;;40.05;18.65;;;8.60;99.90;;;;;;5027980;28;20017;-69
2024/03/25 08:35:55;;;;;;;47.50;18.40;;;8.80;99.90;;;;;;5027158;28;20386;-67
2024/03/25 08:38:21;;;;;;;46.63;18.08;;;9.10;99.90;;;;;;5027653;28;20057;-69
2024/03/25 08:40:47;;;;;;;46.45;17.35;;;9.20;99.90;;;;;;5027836;28;20500;-69
2024/03/25 08:43:12;;;;;;;34.67;16.67;;;9.40;99.90;;;;;;5027628;28;20508;-69
2024/03/25 08:45:38;;;;;;;38.90;16.15;;;9.50;99.90;;;;;;5027980;28;20036;-68
2024/03/25 08:48:04;;;;;;;40.08;17.00;;;9.60;99.90;;;;;;5027606;28;20083;-69
2024/03/25 08:50:30;;;;;;;46.53;17.50;;;9.70;99.90;;;;;;5026975;28;20030;-69
2024/03/25 08:52:56;;;;;;;34.72;15.95;;;9.80;99.90;;;;;;5027330;28;20051;-69
2024/03/25 08:55:21;;;;;;;36.42;15.02;;;9.90;99.90;;;;;;5028146;28;20029;-69
2024/03/25 08:57:47;;;;;;;32.88;15.20;;;10.00;99.90;;;;;;5027416;28;20032;-69
2024/03/25 09:00:14;;;;;;;39.85;13.98;;;10.10;99.90;;;;;;5027618;28;20035;-68
2024/03/25 09:02:39;;;;;;;31.38;14.30;;;10.20;99.90;;;;;;5027053;28;20474;-69
2024/03/25 09:05:05;;;;;;;34.38;14.82;;;10.20;99.90;;;;;;5027256;28;20029;-69
2024/03/25 09:07:32;;;;;;;30.63;14.38;;;10.40;99.90;;;;;;5027334;28;20025;-69
2024/03/25 09:12:42;;;;;;;29.88;12.10;;;10.50;99.90;;;;;;5026440;28;20044;-69
2024/03/25 09:15:09;;;;;;;30.75;11.50;;;10.60;99.90;;;;;;5027034;28;20493;-69
2024/03/25 09:17:35;;;;;;;28.25;12.30;;;10.70;99.90;;;;;;5026703;28;20029;-69
2024/03/25 09:20:04;;;;;;;26.65;12.30;;;10.70;99.90;;;;;;5025995;28;20097;-70
2024/03/25 09:22:29;;;;;;;30.25;12.50;;;10.90;99.90;;;;;;5027132;28;20075;-69
2024/03/25 09:24:55;;;;;;;32.92;11.48;;;11.00;99.90;;;;;;5027588;28;20386;-69
2024/03/25 09:27:21;;;;;;;27.42;11.48;;;11.00;99.90;;;;;;5026916;28;20029;-69
2024/03/25 09:29:46;;;;;;;25.85;10.50;;;10.90;99.90;;;;;;5026740;28;20022;-69
2024/03/25 09:32:12;;;;;;;35.33;12.80;;;11.00;99.90;;;;;;5026845;28;20029;-70
2024/03/25 09:34:38;;;;;;;23.00;11.23;;;11.00;99.90;;;;;;5027140;28;20538;-70
2024/03/25 09:37:04;;;;;;;29.30;10.73;;;11.30;99.90;;;;;;5026292;28;20521;-69
2024/03/25 09:39:30;;;;;;;32.75;10.73;;;11.40;99.90;;;;;;5025664;28;20029;-69
2024/03/25 09:42:01;;;;;;;24.55;9.15;;;11.70;99.90;;;;;;5025938;28;20029;-70
2024/03/25 09:44:31;;;;;;;27.17;9.48;;;11.60;99.90;;;;;;5026169;28;20025;-69
2024/03/25 09:46:57;;;;;;;22.27;8.88;;;11.60;99.90;;;;;;5026544;28;20028;-70
2024/03/25 09:49:24;;;;;;;20.17;7.65;;;11.80;99.90;;;;;;5025721;28;20065;-70
2024/03/25 09:51:50;;;;;;;24.40;8.77;;;11.90;99.90;;;;;;5026306;28;20029;-70
2024/03/25 09:54:15;;;;;;;25.58;9.52;;;12.10;99.90;;;;;;5026630;28;20026;-70
2024/03/25 09:56:42;;;;;;;17.40;6.88;;;12.30;99.90;;;;;;5026108;28;20482;-70
2024/03/25 09:59:07;;;;;;;19.50;7.72;;;12.40;99.90;;;;;;5025926;28;20427;-70
2024/03/25 10:01:33;;;;;;;17.02;7.35;;;12.50;99.90;;;;;;5025913;28;20375;-71
2024/03/25 10:03:59;;;;;;;18.15;7.30;;;12.50;99.90;;;;;;5026225;28;20021;-70
2024/03/25 10:06:25;;;;;;;16.48;6.20;;;12.50;99.90;;;;;;5026388;28;20035;-71
2024/03/25 10:08:53;;;;;;;14.73;6.20;;;12.70;99.90;;;;;;5026240;28;20378;-70
2024/03/25 10:11:19;;;;;;;10.20;5.50;;;12.60;99.90;;;;;;5026190;28;20029;-70
2024/03/25 10:13:45;;;;;;;13.65;4.15;;;12.80;99.90;;;;;;5026483;28;20029;-71
2024/03/25 10:16:11;;;;;;;7.72;3.92;;;12.90;99.90;;;;;;5025171;28;20398;-70
2024/03/25 10:18:37;;;;;;;6.75;2.60;;;13.10;99.90;;;;;;5026376;28;20034;-70
2024/03/25 10:21:03;;;;;;;6.65;3.30;;;12.90;99.90;;;;;;5023860;28;20036;-71
2024/03/25 10:23:29;;;;;;;6.75;2.78;;;12.90;99.90;;;;;;5026315;28;20014;-71
2024/03/25 10:25:55;;;;;;;7.15;3.45;;;13.00;99.90;;;;;;5026521;28;20387;-69
2024/03/25 10:28:21;;;;;;;13.25;4.18;;;12.60;99.90;;;;;;5025744;28;20021;-73
2024/03/25 10:30:47;;;;;;;10.82;4.60;;;12.90;99.90;;;;;;5025149;28;20033;-71
2024/03/25 10:33:13;;;;;;;7.82;3.58;;;13.00;99.90;;;;;;5024675;28;20547;-71
2024/03/25 10:35:40;;;;;;;5.78;2.30;;;13.10;99.90;;;;;;5024234;28;20017;-71
2024/03/25 10:38:08;;;;;;;5.85;2.33;;;13.20;99.90;;;;;;5025235;28;20045;-70
2024/03/25 10:40:36;;;;;;;9.27;2.70;;;13.40;99.90;;;;;;5025783;28;20021;-71
2024/03/25 10:43:06;;;;;;;7.70;3.58;;;13.50;99.90;;;;;;5024443;28;20025;-72
2024/03/25 10:45:34;;;;;;;6.70;2.60;;;13.60;99.90;;;;;;5025117;28;20026;-72
2024/03/25 10:48:28;;;;;;;7.75;3.25;;;13.80;99.90;;;;;;5025800;28;20048;-70
2024/03/25 10:50:56;;;;;;;5.38;2.55;;;13.80;99.90;;;;;;5024756;28;20033;-71
2024/03/25 10:53:25;;;;;;;7.80;3.35;;;14.00;99.90;;;;;;5025872;28;20029;-71
2024/03/25 10:55:56;;;;;;;9.27;3.08;;;13.90;99.90;;;;;;5024329;28;20540;-71
2024/03/25 10:58:22;;;;;;;7.85;3.55;;;14.00;99.90;;;;;;5024705;28;20034;-71
2024/03/25 11:00:56;;;;;;;7.15;3.47;;;13.90;99.90;;;;;;5025214;28;20082;-74
2024/03/25 11:03:23;;;;;;;9.23;3.83;;;13.70;99.90;;;;;;5025595;28;20026;-71
2024/03/25 11:05:49;;;;;;;10.35;3.40;;;13.90;99.90;;;;;;5025050;28;20425;-71
2024/03/25 11:08:16;;;;;;;9.88;3.42;;;14.10;99.90;;;;;;5025040;28;22452;-73
2024/03/25 11:10:44;;;;;;;8.00;3.85;;;14.20;99.90;;;;;;5025427;28;20030;-73
2024/03/25 11:13:29;;;;;;;8.00;3.50;;;14.00;99.90;;;;;;5025138;28;20026;-71
2024/03/25 11:15:55;;;;;;;14.23;4.10;;;13.90;99.90;;;;;;5024491;28;20032;-71
2024/03/25 11:18:25;;;;;;;10.20;3.85;;;13.80;99.90;;;;;;5025603;28;20038;-72
2024/03/25 11:21:13;;;;;;;5.82;3.35;;;13.50;99.90;;;;;;5024567;28;20021;-73
2024/03/25 11:23:42;;;;;;;9.95;3.83;;;13.80;99.90;;;;;;5025072;28;20021;-71
2024/03/25 11:26:27;;;;;;;11.38;3.80;;;13.90;99.90;;;;;;5024756;28;20022;-72
2024/03/25 11:28:53;;;;;;;7.55;3.67;;;14.20;99.90;;;;;;5024856;28;20068;-71
2024/03/25 11:31:22;;;;;;;9.02;3.42;;;14.60;99.90;;;;;;5021902;28;20018;-72
2024/03/25 11:33:47;;;;;;;6.78;3.40;;;14.80;99.90;;;;;;5024336;28;20474;-72
2024/03/25 11:36:14;;;;;;;4.88;3.45;;;14.90;99.90;;;;;;5023956;28;20020;-72
2024/03/25 11:38:43;;;;;;;5.88;2.97;;;15.20;99.90;;;;;;5025346;28;20057;-71
2024/03/25 11:41:10;;;;;;;7.90;2.85;;;15.30;99.90;;;;;;5024643;28;20101;-71
2024/03/25 11:43:36;;;;;;;7.68;3.40;;;15.00;99.90;;;;;;5024975;28;20075;-71
2024/03/25 11:46:02;;;;;;;5.35;2.92;;;14.90;99.90;;;;;;5024939;28;20018;-73
2024/03/25 11:48:33;;;;;;;8.00;3.00;;;14.60;99.90;;;;;;5024086;28;20108;-72
2024/03/25 11:51:00;;;;;;;7.13;3.05;;;14.40;99.90;;;;;;5024529;28;20117;-72
2024/03/25 11:53:27;;;;;;;10.50;3.53;;;14.50;99.90;;;;;;5024105;28;20026;-72
2024/03/25 11:55:53;;;;;;;6.63;2.67;;;14.70;99.90;;;;;;5024649;28;20417;-72
2024/03/25 11:58:19;;;;;;;6.10;3.00;;;14.90;99.90;;;;;;5024941;28;20071;-72
2024/03/25 12:00:45;;;;;;;5.97;2.72;;;15.00;99.90;;;;;;5023676;28;20025;-72
2024/03/25 12:03:15;;;;;;;8.27;3.30;;;14.70;99.90;;;;;;5025419;28;20099;-72
2024/03/25 12:05:41;;;;;;;6.35;3.30;;;14.60;99.90;;;;;;5024736;28;20017;-72
2024/03/25 12:08:10;;;;;;;5.80;3.33;;;14.60;99.90;;;;;;5025223;28;20104;-71
2024/03/25 12:13:21;;;;;;;5.55;3.03;;;14.80;99.90;;;;;;5027319;28;20442;-72
2024/03/25 12:15:48;;;;;;;6.03;2.63;;;14.60;99.90;;;;;;5028556;28;20057;-72
2024/03/25 12:18:15;;;;;;;7.15;2.90;;;14.70;99.90;;;;;;5028764;28;20057;-72
2024/03/25 12:20:51;;;;;;;5.53;2.42;;;14.30;99.90;;;;;;5028773;28;20025;-72
2024/03/25 12:23:17;;;;;;;5.97;2.75;;;14.20;99.90;;;;;;5025844;28;20028;-74
2024/03/25 12:25:51;;;;;;;4.47;2.90;;;14.40;99.90;;;;;;5025608;28;20465;-72
2024/03/25 12:28:17;;;;;;;6.63;3.10;;;14.70;99.90;;;;;;5026933;28;20026;-72
2024/03/25 12:30:54;;;;;;;6.07;2.88;;;14.90;99.90;;;;;;5028307;28;20025;-72
2024/03/25 12:33:20;;;;;;;5.03;2.90;;;15.30;99.90;;;;;;5028625;28;20028;-72
2024/03/25 12:35:47;;;;;;;5.90;2.60;;;15.10;99.90;;;;;;5024335;28;20029;-73
2024/03/25 12:38:42;;;;;;;5.93;2.97;;;15.30;99.90;;;;;;5027064;28;20041;-73
2024/03/25 12:41:10;;;;;;;8.25;2.90;;;15.20;99.90;;;;;;5030052;28;20069;-72
2024/03/25 12:43:46;;;;;;;6.13;3.38;;;15.30;99.90;;;;;;5027384;28;20025;-72
2024/03/25 12:46:12;;;;;;;7.15;2.85;;;15.10;99.90;;;;;;5027792;28;20025;-74
2024/03/25 12:48:39;;;;;;;4.97;3.10;;;15.20;99.90;;;;;;5029246;28;20521;-72
2024/03/25 12:51:05;;;;;;;4.45;2.67;;;15.00;99.90;;;;;;5027518;28;20101;-72